Time;durP1;ratioP1;P1;durP2;ratioP2;P2;SDS_P1;SDS_P2;PMS_P1;PMS_P2;Temp;Humidity;BMP_temperature;BMP_pressure;BME280_temperature;BME280_humidity;BME280_pressure;Samples;Min_cycle;Max_cycle;Signal;HPM_P1;HPM_P2
2024/01/09 00:01:29;;;;;;;9.63;8.60;;;-4.40;1.00;;;;;;5051291;28;20181;-72
2024/01/09 00:03:55;;;;;;;9.13;8.20;;;-4.40;1.00;;;;;;5050772;28;20209;-73
2024/01/09 00:06:22;;;;;;;9.23;8.03;;;-4.40;1.00;;;;;;5051161;28;20230;-73
2024/01/09 00:08:47;;;;;;;8.97;8.17;;;-4.50;1.00;;;;;;5051131;28;20194;-73
2024/01/09 00:11:13;;;;;;;9.60;7.07;;;-4.40;1.00;;;;;;5051177;28;20536;-73
2024/01/09 00:13:39;;;;;;;8.13;7.33;;;-4.50;1.00;;;;;;5051333;28;20177;-73
2024/01/09 00:16:05;;;;;;;8.80;7.90;;;-4.50;1.00;;;;;;5051377;28;20182;-73
2024/01/09 00:18:31;;;;;;;8.30;7.50;;;-4.50;1.00;;;;;;5035525;28;20305;-73
2024/01/09 00:20:56;;;;;;;8.00;7.30;;;-4.60;1.00;;;;;;5051201;28;20186;-72
2024/01/09 00:23:22;;;;;;;13.33;9.00;;;-4.60;1.00;;;;;;5049867;28;20190;-73
2024/01/09 00:25:47;;;;;;;8.70;7.87;;;-4.70;1.00;;;;;;5032847;28;20182;-73
2024/01/09 00:28:13;;;;;;;9.23;8.33;;;-4.80;1.00;;;;;;5050601;28;20183;-73
2024/01/09 00:30:39;;;;;;;8.43;7.37;;;-4.80;1.00;;;;;;5054894;28;20187;-72
2024/01/09 00:33:04;;;;;;;9.60;8.03;;;-4.90;1.00;;;;;;5053619;28;20181;-73
2024/01/09 00:35:30;;;;;;;9.50;8.50;;;-5.00;1.00;;;;;;5054941;28;20170;-72
2024/01/09 00:37:55;;;;;;;8.90;8.10;;;-5.10;1.00;;;;;;5053505;28;20199;-73
2024/01/09 00:40:21;;;;;;;9.23;8.30;;;-5.10;1.00;;;;;;5055012;28;20185;-72
2024/01/09 00:42:47;;;;;;;9.93;8.10;;;-5.20;1.00;;;;;;5054654;28;20194;-72
2024/01/09 00:45:12;;;;;;;12.20;8.50;;;-5.20;1.00;;;;;;5054874;28;20178;-72
2024/01/09 00:47:38;;;;;;;9.70;8.33;;;-5.20;1.00;;;;;;5054345;28;20264;-72
2024/01/09 00:50:04;;;;;;;9.57;7.70;;;-5.20;1.00;;;;;;5054573;28;20171;-74
2024/01/09 00:52:29;;;;;;;8.60;7.80;;;-5.20;1.00;;;;;;5054486;28;20182;-73
2024/01/09 00:54:55;;;;;;;11.20;8.13;;;-5.30;1.00;;;;;;5036740;28;20175;-72
2024/01/09 00:57:21;;;;;;;9.47;8.57;;;-5.30;1.00;;;;;;5052938;28;20203;-72
2024/01/09 00:59:46;;;;;;;9.83;8.87;;;-5.30;1.00;;;;;;5054830;28;20178;-73
2024/01/09 01:02:12;;;;;;;9.00;8.17;;;-5.30;1.00;;;;;;5054315;28;20179;-72
2024/01/09 01:04:38;;;;;;;10.10;8.70;;;-5.30;1.00;;;;;;5054335;28;20543;-72
2024/01/09 01:07:04;;;;;;;10.87;8.93;;;-5.30;1.00;;;;;;5054247;28;20226;-72
2024/01/09 01:09:29;;;;;;;12.60;8.37;;;-5.30;1.00;;;;;;5054335;28;20592;-71
2024/01/09 01:11:55;;;;;;;8.03;7.23;;;-5.30;1.00;;;;;;5052843;28;20182;-72
2024/01/09 01:14:21;;;;;;;9.37;7.83;;;-5.20;1.00;;;;;;5052671;28;20187;-72
2024/01/09 01:16:47;;;;;;;11.43;8.07;;;-5.20;1.00;;;;;;5054078;28;20186;-72
2024/01/09 01:19:12;;;;;;;10.63;8.40;;;-5.10;1.00;;;;;;5054106;28;20210;-73
2024/01/09 01:21:38;;;;;;;9.63;8.70;;;-5.10;1.00;;;;;;5036306;28;20549;-73
2024/01/09 01:24:04;;;;;;;10.67;8.00;;;-5.00;1.00;;;;;;5053147;28;20210;-72
2024/01/09 01:26:29;;;;;;;9.50;8.57;;;-5.00;1.00;;;;;;5053352;28;20644;-73
2024/01/09 01:28:55;;;;;;;11.23;8.23;;;-5.00;1.00;;;;;;5053696;28;20214;-73
2024/01/09 01:31:21;;;;;;;8.07;7.27;;;-5.00;1.00;;;;;;5054105;28;20179;-73
2024/01/09 01:33:47;;;;;;;10.43;8.10;;;-5.00;1.00;;;;;;5053854;28;20194;-73
2024/01/09 01:36:14;;;;;;;9.60;7.87;;;-4.90;1.00;;;;;;5054038;28;20205;-73
2024/01/09 01:38:43;;;;;;;9.13;7.93;;;-4.90;1.00;;;;;;5053762;28;20285;-73
2024/01/09 01:41:09;;;;;;;11.17;8.03;;;-4.80;1.00;;;;;;5052263;28;20187;-72
2024/01/09 01:43:34;;;;;;;11.80;8.10;;;-4.90;1.00;;;;;;5053698;28;20201;-73
2024/01/09 01:46:01;;;;;;;9.27;8.37;;;-4.90;1.00;;;;;;5053645;28;20632;-72
2024/01/09 01:48:28;;;;;;;9.43;8.00;;;-4.90;1.00;;;;;;5053234;28;20190;-72
2024/01/09 01:50:53;;;;;;;10.83;8.90;;;-4.90;1.00;;;;;;5052416;28;20179;-72
2024/01/09 01:53:19;;;;;;;7.77;7.07;;;-4.90;1.00;;;;;;5052364;28;20240;-73
2024/01/09 01:55:46;;;;;;;9.20;8.30;;;-5.00;1.00;;;;;;5053436;28;20175;-73
2024/01/09 01:58:12;;;;;;;8.30;7.60;;;-5.00;1.00;;;;;;5053165;28;20194;-72
2024/01/09 02:00:38;;;;;;;10.53;7.37;;;-5.00;1.00;;;;;;5053562;28;20202;-73
2024/01/09 02:03:04;;;;;;;11.93;8.77;;;-5.00;1.00;;;;;;5053261;28;20175;-72
2024/01/09 02:05:31;;;;;;;8.80;7.93;;;-5.10;1.00;;;;;;5053507;28;20172;-72
2024/01/09 02:07:57;;;;;;;9.83;7.63;;;-5.10;1.00;;;;;;5053154;28;20293;-72
2024/01/09 02:10:23;;;;;;;8.33;7.57;;;-5.10;1.00;;;;;;5053546;28;20195;-72
2024/01/09 02:12:50;;;;;;;7.97;7.30;;;-5.20;1.00;;;;;;5052990;28;20210;-72
2024/01/09 02:15:16;;;;;;;10.53;8.83;;;-5.20;1.00;;;;;;5052914;28;20177;-72
2024/01/09 02:17:42;;;;;;;8.10;7.43;;;-5.30;1.00;;;;;;5052722;28;20221;-74
2024/01/09 02:20:09;;;;;;;9.10;8.30;;;-5.30;1.00;;;;;;5053022;28;20179;-72
2024/01/09 02:22:35;;;;;;;10.40;8.30;;;-5.40;1.00;;;;;;5055264;28;20190;-72
2024/01/09 02:25:01;;;;;;;10.80;9.63;;;-5.50;1.00;;;;;;5053304;28;20186;-72
2024/01/09 02:28:06;;;;;;;10.13;8.67;;;-5.50;1.00;;;;;;5052370;28;20774;-73
2024/01/09 02:30:31;;;;;;;8.73;7.93;;;-5.50;1.00;;;;;;5053401;28;20717;-72
2024/01/09 02:32:58;;;;;;;9.27;8.37;;;-5.60;1.00;;;;;;5052928;28;20253;-72
2024/01/09 02:35:24;;;;;;;9.37;8.47;;;-5.70;1.00;;;;;;5052878;28;20606;-72
2024/01/09 02:37:49;;;;;;;11.87;9.90;;;-5.70;1.00;;;;;;5051209;28;20206;-72
2024/01/09 02:40:15;;;;;;;10.67;9.13;;;-5.80;1.00;;;;;;5052562;28;20532;-72
2024/01/09 02:42:40;;;;;;;11.90;9.00;;;-5.80;1.00;;;;;;5052875;28;20186;-72
2024/01/09 02:45:06;;;;;;;9.90;8.90;;;-5.80;1.00;;;;;;5052725;28;20601;-72
2024/01/09 02:47:32;;;;;;;9.63;8.73;;;-5.90;1.00;;;;;;5051014;28;20297;-72
2024/01/09 02:49:57;;;;;;;9.93;8.93;;;-5.80;1.00;;;;;;5052662;28;20312;-72
2024/01/09 02:52:23;;;;;;;10.37;8.67;;;-5.80;1.00;;;;;;5052224;28;20189;-72
2024/01/09 02:54:49;;;;;;;12.73;9.17;;;-5.80;1.00;;;;;;5052119;28;20183;-72
2024/01/09 02:57:15;;;;;;;12.37;9.50;;;-5.80;1.00;;;;;;5050754;28;20228;-72
2024/01/09 02:59:41;;;;;;;9.90;9.00;;;-5.80;1.00;;;;;;5052658;28;20581;-72
2024/01/09 03:02:06;;;;;;;9.17;8.27;;;-5.90;1.00;;;;;;5053157;28;20186;-73
2024/01/09 03:04:32;;;;;;;13.43;9.27;;;-5.80;1.00;;;;;;5053267;28;20177;-71
2024/01/09 03:06:58;;;;;;;10.03;9.03;;;-5.90;1.00;;;;;;5052157;28;20203;-72
2024/01/09 03:09:24;;;;;;;9.77;8.77;;;-5.90;1.00;;;;;;5051761;28;20178;-72
2024/01/09 03:11:49;;;;;;;10.90;9.10;;;-5.90;1.00;;;;;;5052145;28;20175;-72
2024/01/09 03:14:15;;;;;;;10.67;9.23;;;-5.90;1.00;;;;;;5051527;28;20317;-74
2024/01/09 03:16:41;;;;;;;9.33;8.40;;;-5.90;1.00;;;;;;5051780;28;20206;-71
2024/01/09 03:19:06;;;;;;;9.23;8.33;;;-5.90;1.00;;;;;;5051816;28;20217;-71
2024/01/09 03:21:32;;;;;;;10.27;9.20;;;-6.00;1.00;;;;;;5052054;28;20174;-72
2024/01/09 03:23:58;;;;;;;12.77;9.77;;;-5.90;1.00;;;;;;5051626;28;20269;-72
2024/01/09 03:26:23;;;;;;;9.90;8.67;;;-5.90;1.00;;;;;;5050390;28;20206;-72
2024/01/09 03:28:49;;;;;;;12.47;10.00;;;-5.90;1.00;;;;;;5051288;28;20190;-72
2024/01/09 03:31:22;;;;;;;10.60;9.10;;;-5.80;1.00;;;;;;5051676;28;20171;-72
2024/01/09 03:33:48;;;;;;;10.00;9.03;;;-5.80;1.00;;;;;;5051784;28;20254;-73
2024/01/09 03:36:14;;;;;;;12.10;9.97;;;-5.80;1.00;;;;;;5051609;28;20178;-72
2024/01/09 03:38:41;;;;;;;10.50;9.50;;;-5.80;1.00;;;;;;5051500;28;20752;-73
2024/01/09 03:41:06;;;;;;;9.53;8.63;;;-5.70;1.00;;;;;;5051604;28;20167;-73
2024/01/09 03:43:32;;;;;;;11.40;8.90;;;-5.70;1.00;;;;;;5051103;28;20606;-72
2024/01/09 03:45:57;;;;;;;9.57;8.53;;;-5.70;1.00;;;;;;5051613;28;20175;-72
2024/01/09 03:48:23;;;;;;;9.63;8.93;;;-5.70;1.00;;;;;;5051120;28;20232;-73
2024/01/09 03:50:49;;;;;;;9.23;8.33;;;-5.70;1.00;;;;;;5051507;28;20216;-72
2024/01/09 03:53:15;;;;;;;9.87;8.87;;;-5.70;1.00;;;;;;5051812;28;20618;-72
2024/01/09 03:55:41;;;;;;;11.27;8.93;;;-5.60;1.00;;;;;;5051311;28;20182;-72
2024/01/09 03:58:07;;;;;;;12.60;9.13;;;-5.60;1.00;;;;;;5051076;28;20728;-73
2024/01/09 04:00:33;;;;;;;9.90;8.90;;;-5.60;1.00;;;;;;5051244;28;20175;-73
2024/01/09 04:02:59;;;;;;;10.30;9.27;;;-5.60;1.00;;;;;;5050596;28;20266;-73
2024/01/09 04:05:25;;;;;;;10.13;9.23;;;-5.60;1.00;;;;;;5051139;28;20179;-72
2024/01/09 04:07:51;;;;;;;9.70;8.77;;;-5.60;1.00;;;;;;5051370;28;20252;-72
2024/01/09 04:10:16;;;;;;;9.47;8.57;;;-5.60;1.00;;;;;;5051381;28;20682;-72
2024/01/09 04:12:42;;;;;;;10.50;8.47;;;-5.60;1.00;;;;;;5051335;28;20186;-72
2024/01/09 04:15:08;;;;;;;9.90;9.00;;;-5.60;1.00;;;;;;5050032;28;20174;-73
2024/01/09 04:17:34;;;;;;;13.77;9.50;;;-5.60;1.00;;;;;;5050716;28;20211;-73
2024/01/09 04:20:01;;;;;;;9.80;8.80;;;-5.60;1.00;;;;;;5051467;28;20236;-72
2024/01/09 04:22:26;;;;;;;8.40;7.60;;;-5.60;1.00;;;;;;5053456;28;20261;-72
2024/01/09 04:24:52;;;;;;;9.17;7.93;;;-5.60;1.00;;;;;;5054037;28;20217;-72
2024/01/09 04:27:17;;;;;;;10.87;9.27;;;-5.60;1.00;;;;;;5051090;28;20211;-73
2024/01/09 04:29:43;;;;;;;9.43;8.43;;;-5.70;1.00;;;;;;5050449;28;20644;-72
2024/01/09 04:32:09;;;;;;;7.70;7.03;;;-5.70;1.00;;;;;;5051798;28;20183;-73
2024/01/09 04:34:36;;;;;;;9.90;8.93;;;-5.70;1.00;;;;;;5051112;28;20209;-72
2024/01/09 04:37:02;;;;;;;8.37;7.67;;;-5.70;1.00;;;;;;5050811;28;20283;-73
2024/01/09 04:39:28;;;;;;;10.83;8.50;;;-5.70;1.00;;;;;;5033128;28;20214;-75
2024/01/09 04:41:53;;;;;;;9.07;8.10;;;-5.80;1.00;;;;;;5049658;28;20178;-72
2024/01/09 04:44:19;;;;;;;9.47;8.10;;;-5.80;1.00;;;;;;5030872;28;20220;-73
2024/01/09 04:46:44;;;;;;;9.80;8.83;;;-5.80;1.00;;;;;;5030904;28;20207;-72
2024/01/09 04:49:10;;;;;;;10.00;9.00;;;-5.80;1.00;;;;;;5031143;28;20777;-73
2024/01/09 04:51:36;;;;;;;11.90;9.93;;;-5.90;1.00;;;;;;5033534;28;20701;-72
2024/01/09 04:54:02;;;;;;;10.10;9.07;;;-5.90;1.00;;;;;;5050847;28;20171;-72
2024/01/09 04:56:27;;;;;;;9.60;8.73;;;-5.90;1.00;;;;;;5049708;28;20658;-72
2024/01/09 04:58:53;;;;;;;9.87;8.83;;;-5.90;1.00;;;;;;5039304;28;20201;-73
2024/01/09 05:01:22;;;;;;;9.33;8.53;;;-6.00;1.00;;;;;;5050793;28;20177;-72
2024/01/09 05:03:49;;;;;;;10.03;9.03;;;-6.00;1.00;;;;;;5050729;28;20179;-72
2024/01/09 05:06:16;;;;;;;9.83;9.00;;;-6.00;1.00;;;;;;5050956;28;20198;-72
2024/01/09 05:08:42;;;;;;;11.30;9.97;;;-6.10;1.00;;;;;;5050688;28;20187;-72
2024/01/09 05:11:07;;;;;;;10.47;9.53;;;-6.10;1.00;;;;;;5049297;28;20543;-73
2024/01/09 05:13:33;;;;;;;10.13;9.10;;;-6.20;1.00;;;;;;5050346;28;20175;-72
2024/01/09 05:15:59;;;;;;;10.43;8.93;;;-6.20;1.00;;;;;;5053297;28;20178;-72
2024/01/09 05:18:25;;;;;;;8.57;7.77;;;-6.30;1.00;;;;;;5053878;28;20234;-72
2024/01/09 05:20:51;;;;;;;10.60;9.13;;;-6.30;1.00;;;;;;5054050;28;20214;-73
2024/01/09 05:23:16;;;;;;;9.13;8.23;;;-6.30;1.00;;;;;;5053829;28;20210;-72
2024/01/09 05:25:42;;;;;;;9.50;8.60;;;-6.40;1.00;;;;;;5054255;28;20171;-72
2024/01/09 05:28:07;;;;;;;9.63;8.73;;;-6.50;1.00;;;;;;5053860;28;20286;-73
2024/01/09 05:30:33;;;;;;;9.00;7.73;;;-6.50;1.00;;;;;;5054184;28;20170;-72
2024/01/09 05:32:59;;;;;;;11.07;9.37;;;-6.50;1.00;;;;;;5054185;28;20236;-73
2024/01/09 05:35:24;;;;;;;9.03;8.13;;;-6.60;1.00;;;;;;5054055;28;20220;-73
2024/01/09 05:37:50;;;;;;;10.47;9.17;;;-6.60;1.00;;;;;;5053976;28;20249;-73
2024/01/09 05:40:19;;;;;;;10.07;9.00;;;-6.70;1.00;;;;;;5053911;28;20278;-72
2024/01/09 05:42:45;;;;;;;13.00;8.73;;;-6.70;1.00;;;;;;5054425;28;20741;-72
2024/01/09 05:45:11;;;;;;;9.07;8.17;;;-6.70;1.00;;;;;;5054593;28;20199;-72
2024/01/09 05:47:37;;;;;;;9.93;8.90;;;-6.70;1.00;;;;;;5054756;28;20226;-71
2024/01/09 05:50:03;;;;;;;11.27;10.17;;;-6.80;1.00;;;;;;5054188;28;20221;-72
2024/01/09 05:52:28;;;;;;;14.07;9.30;;;-6.80;1.00;;;;;;5053653;28;20178;-74
2024/01/09 05:54:54;;;;;;;17.20;11.93;;;-6.80;1.00;;;;;;5053366;28;20638;-71
2024/01/09 05:57:20;;;;;;;11.63;9.67;;;-6.80;1.00;;;;;;5053449;28;20199;-71
2024/01/09 05:59:46;;;;;;;14.40;9.37;;;-6.70;1.00;;;;;;5052366;28;20183;-72
2024/01/09 06:02:12;;;;;;;9.73;8.73;;;-6.70;1.00;;;;;;5052318;28;20587;-72
2024/01/09 06:04:37;;;;;;;11.47;10.27;;;-6.70;1.00;;;;;;5053278;28;20537;-72
2024/01/09 06:07:03;;;;;;;12.13;9.93;;;-6.80;1.00;;;;;;5053223;28;20202;-72
2024/01/09 06:09:29;;;;;;;13.93;10.57;;;-6.80;1.00;;;;;;5053210;28;20171;-73
2024/01/09 06:11:54;;;;;;;12.10;10.20;;;-6.90;1.00;;;;;;5052934;28;20198;-72
2024/01/09 06:14:20;;;;;;;12.23;9.53;;;-7.10;1.00;;;;;;5052006;28;20712;-71
2024/01/09 06:16:45;;;;;;;10.90;8.27;;;-7.00;1.00;;;;;;5053253;28;20178;-72
2024/01/09 06:19:11;;;;;;;10.27;9.17;;;-7.00;1.00;;;;;;5053171;28;20214;-72
2024/01/09 06:21:37;;;;;;;12.17;10.63;;;-7.00;1.00;;;;;;5053094;28;20190;-73
2024/01/09 06:24:03;;;;;;;13.83;9.70;;;-7.00;1.00;;;;;;5051786;28;20171;-71
2024/01/09 06:26:29;;;;;;;10.30;8.93;;;-7.00;1.00;;;;;;5052174;28;20222;-72
2024/01/09 06:28:55;;;;;;;19.03;16.10;;;-7.10;1.00;;;;;;5051877;28;20194;-71
2024/01/09 06:31:20;;;;;;;47.43;35.80;;;-7.00;1.00;;;;;;5051655;28;20230;-72
2024/01/09 06:33:46;;;;;;;29.50;24.67;;;-7.00;1.00;;;;;;5052886;28;20175;-72
2024/01/09 06:36:12;;;;;;;32.80;24.03;;;-7.00;1.00;;;;;;5052644;28;20225;-72
2024/01/09 06:38:37;;;;;;;20.30;15.90;;;-6.90;1.00;;;;;;5034504;28;20194;-72
2024/01/09 06:41:03;;;;;;;14.63;12.93;;;-7.00;1.00;;;;;;5052859;28;20174;-72
2024/01/09 06:43:29;;;;;;;13.93;11.27;;;-7.00;1.00;;;;;;5052407;28;20512;-72
2024/01/09 06:45:54;;;;;;;12.83;10.47;;;-6.90;1.00;;;;;;5052694;28;20175;-72
2024/01/09 06:48:20;;;;;;;9.80;8.90;;;-6.90;1.00;;;;;;5052578;28;20221;-73
2024/01/09 06:50:46;;;;;;;9.77;8.77;;;-6.80;1.00;;;;;;5052983;28;20249;-72
2024/01/09 06:53:11;;;;;;;8.93;8.13;;;-6.80;1.00;;;;;;5052923;28;20175;-72
2024/01/09 06:55:37;;;;;;;11.47;8.60;;;-6.80;1.00;;;;;;5052754;28;20255;-72
2024/01/09 06:58:03;;;;;;;9.30;8.47;;;-6.80;1.00;;;;;;5052447;28;20197;-73
2024/01/09 07:00:29;;;;;;;10.10;9.07;;;-6.70;1.00;;;;;;5052354;28;20179;-73
2024/01/09 07:02:54;;;;;;;13.17;9.37;;;-6.80;1.00;;;;;;5053057;28;20229;-72
2024/01/09 07:05:20;;;;;;;10.50;8.90;;;-6.80;1.00;;;;;;5052611;28;20182;-72
2024/01/09 07:07:46;;;;;;;10.13;8.83;;;-6.80;1.00;;;;;;5053549;28;20210;-72
2024/01/09 07:10:12;;;;;;;10.23;9.13;;;-6.90;1.00;;;;;;5035432;28;20175;-72
2024/01/09 07:12:38;;;;;;;10.30;8.90;;;-6.90;1.00;;;;;;5052212;28;20166;-71
2024/01/09 07:15:04;;;;;;;10.07;9.07;;;-6.90;1.00;;;;;;5052081;28;20174;-72
2024/01/09 07:17:29;;;;;;;11.73;9.23;;;-6.90;1.00;;;;;;5051739;28;20260;-71
2024/01/09 07:19:55;;;;;;;14.60;9.53;;;-6.80;1.00;;;;;;5052273;28;20179;-72
2024/01/09 07:22:21;;;;;;;10.20;9.23;;;-6.80;1.00;;;;;;5049959;28;20213;-73
2024/01/09 07:24:49;;;;;;;9.60;8.33;;;-6.80;1.00;;;;;;5051789;28;20167;-73
2024/01/09 07:27:14;;;;;;;16.03;9.33;;;-6.80;1.00;;;;;;5051084;28;20785;-73
2024/01/09 07:29:40;;;;;;;9.40;8.40;;;-6.80;1.00;;;;;;5044575;28;20278;-73
2024/01/09 07:32:06;;;;;;;10.37;8.83;;;-6.70;1.00;;;;;;5051825;28;20171;-73
2024/01/09 07:34:31;;;;;;;10.57;9.47;;;-6.70;1.00;;;;;;5051278;28;20265;-73
2024/01/09 07:36:57;;;;;;;12.37;9.23;;;-6.80;1.00;;;;;;5051443;28;20173;-72
2024/01/09 07:39:22;;;;;;;9.47;8.70;;;-6.80;1.00;;;;;;5050184;28;20236;-72
2024/01/09 07:41:48;;;;;;;9.70;8.37;;;-6.70;1.00;;;;;;5050307;28;20206;-71
2024/01/09 07:44:14;;;;;;;10.40;9.30;;;-6.80;1.00;;;;;;5051737;28;20250;-72
2024/01/09 07:46:39;;;;;;;10.50;9.40;;;-6.70;1.00;;;;;;5051068;28;20244;-72
2024/01/09 07:49:05;;;;;;;10.63;8.87;;;-6.70;1.00;;;;;;5051446;28;20232;-73
2024/01/09 07:51:31;;;;;;;11.37;9.27;;;-6.60;1.00;;;;;;5051610;28;20167;-72
2024/01/09 07:53:56;;;;;;;10.53;8.80;;;-6.60;1.00;;;;;;5051092;28;20240;-74
2024/01/09 07:56:22;;;;;;;10.67;9.57;;;-6.70;1.00;;;;;;5049883;28;20220;-72
2024/01/09 07:58:48;;;;;;;10.30;9.40;;;-6.70;1.00;;;;;;5051015;28;20285;-73
2024/01/09 08:01:14;;;;;;;12.87;9.57;;;-6.60;1.00;;;;;;5050863;28;20175;-73
2024/01/09 08:03:41;;;;;;;13.80;10.10;;;-6.60;1.00;;;;;;5050766;28;20257;-72
2024/01/09 08:06:16;;;;;;;12.33;10.57;;;-6.60;1.00;;;;;;5051036;28;20202;-71
2024/01/09 08:08:42;;;;;;;28.27;16.43;;;-6.60;1.00;;;;;;5050889;28;20206;-72
2024/01/09 08:11:08;;;;;;;14.70;11.67;;;-6.50;1.00;;;;;;5049195;28;20181;-73
2024/01/09 08:13:35;;;;;;;12.93;11.47;;;-6.40;1.00;;;;;;5051487;28;20186;-73
2024/01/09 08:16:00;;;;;;;12.20;11.03;;;-6.40;1.00;;;;;;5052191;28;20178;-72
2024/01/09 08:18:26;;;;;;;12.50;10.87;;;-6.40;1.00;;;;;;5051759;28;20229;-72
2024/01/09 08:20:52;;;;;;;10.50;9.50;;;-6.30;1.00;;;;;;5051892;28;20178;-72
2024/01/09 08:23:17;;;;;;;13.50;9.83;;;-6.50;1.00;;;;;;5051535;28;20171;-73
2024/01/09 08:25:43;;;;;;;11.83;10.63;;;-6.10;1.00;;;;;;5051562;28;20234;-72
2024/01/09 08:28:09;;;;;;;11.50;10.07;;;-6.10;1.00;;;;;;5051336;28;20203;-72
2024/01/09 08:30:35;;;;;;;10.90;9.93;;;-5.90;1.00;;;;;;5052658;28;20171;-73
2024/01/09 08:33:00;;;;;;;10.50;9.40;;;-5.80;1.00;;;;;;5051369;28;20174;-73
2024/01/09 08:35:26;;;;;;;10.50;9.40;;;-5.80;1.00;;;;;;5048045;28;20206;-72
2024/01/09 08:37:52;;;;;;;12.17;8.87;;;-5.70;1.00;;;;;;5050608;28;20273;-72
2024/01/09 08:40:17;;;;;;;10.53;8.77;;;-5.70;1.00;;;;;;5049572;28;20721;-71
2024/01/09 08:42:43;;;;;;;10.73;9.70;;;-5.60;1.00;;;;;;5051064;28;20260;-71
2024/01/09 08:45:09;;;;;;;14.73;9.70;;;-5.50;1.00;;;;;;5050957;28;20175;-72
2024/01/09 08:47:36;;;;;;;13.20;10.00;;;-5.50;1.00;;;;;;5050471;28;20209;-71
2024/01/09 08:50:02;;;;;;;10.33;9.23;;;-5.40;1.00;;;;;;5051936;28;20175;-71
2024/01/09 08:52:28;;;;;;;10.50;8.87;;;-5.30;1.00;;;;;;5054605;28;20175;-70
2024/01/09 08:54:54;;;;;;;10.30;9.20;;;-5.20;1.00;;;;;;5054455;28;20177;-70
2024/01/09 08:57:20;;;;;;;12.17;9.20;;;-5.10;1.00;;;;;;5054275;28;20301;-70
2024/01/09 08:59:46;;;;;;;11.03;8.53;;;-5.10;1.00;;;;;;5036621;28;20230;-71
2024/01/09 09:02:11;;;;;;;11.80;9.73;;;-4.90;1.00;;;;;;5054749;28;20548;-71
2024/01/09 09:04:37;;;;;;;10.77;8.50;;;-4.50;1.00;;;;;;5054294;28;20261;-71
2024/01/09 09:07:03;;;;;;;10.87;8.73;;;-3.90;1.00;;;;;;5054291;28;20229;-72
2024/01/09 09:09:30;;;;;;;13.83;8.70;;;-3.40;1.00;;;;;;5054692;28;20718;-72
2024/01/09 09:11:58;;;;;;;13.13;9.10;;;-2.80;1.00;;;;;;5055339;28;20646;-73
2024/01/09 09:14:24;;;;;;;14.23;9.00;;;-2.10;1.00;;;;;;5054478;28;20204;-72
2024/01/09 09:16:51;;;;;;;8.57;7.70;;;-1.40;1.00;;;;;;5054221;28;20677;-72
2024/01/09 09:19:17;;;;;;;12.47;7.20;;;-0.80;1.00;;;;;;5054021;28;20190;-72
2024/01/09 09:21:43;;;;;;;7.57;6.87;;;-0.20;1.00;;;;;;5054336;28;20583;-73
2024/01/09 09:24:09;;;;;;;8.87;7.57;;;0.20;1.00;;;;;;5053780;28;20181;-72
2024/01/09 09:26:35;;;;;;;10.53;7.53;;;0.40;1.00;;;;;;5053959;28;20568;-72
2024/01/09 09:29:01;;;;;;;8.33;7.10;;;0.60;1.00;;;;;;5054026;28;20187;-73
2024/01/09 09:31:27;;;;;;;11.57;7.43;;;0.80;1.00;;;;;;5054413;28;20177;-73
2024/01/09 09:33:55;;;;;;;8.83;6.77;;;1.00;1.00;;;;;;5052354;28;20193;-73
2024/01/09 09:36:20;;;;;;;8.67;7.67;;;1.10;1.00;;;;;;5054282;28;20650;-73
2024/01/09 09:38:46;;;;;;;10.33;7.23;;;1.20;1.00;;;;;;5053333;28;20194;-73
2024/01/09 09:41:16;;;;;;;8.73;7.30;;;1.40;1.00;;;;;;5053922;28;20233;-74
2024/01/09 09:43:50;;;;;;;9.00;6.90;;;1.60;1.00;;;;;;5054073;28;20545;-74
2024/01/09 09:46:24;;;;;;;7.07;6.37;;;1.90;1.00;;;;;;5053788;28;20263;-74
2024/01/09 09:48:53;;;;;;;9.00;6.83;;;1.70;1.00;;;;;;5053492;28;20651;-74
2024/01/09 09:51:19;;;;;;;7.53;6.53;;;1.90;1.00;;;;;;5055819;28;20631;-74
2024/01/09 09:53:45;;;;;;;10.27;6.63;;;2.30;1.00;;;;;;5056250;28;20163;-73
2024/01/09 09:56:13;;;;;;;7.63;6.50;;;2.50;1.00;;;;;;5035970;28;20240;-74
2024/01/09 09:58:39;;;;;;;7.80;6.60;;;2.70;1.00;;;;;;5053557;28;20266;-74
2024/01/09 10:01:12;;;;;;;6.67;6.03;;;2.60;1.00;;;;;;5052798;28;20163;-73
2024/01/09 10:03:45;;;;;;;6.97;6.27;;;2.60;1.00;;;;;;5053366;28;20253;-74
2024/01/09 10:06:11;;;;;;;7.80;7.07;;;2.90;1.00;;;;;;5053636;28;20167;-74
2024/01/09 10:08:38;;;;;;;7.63;6.77;;;3.00;1.00;;;;;;5052629;28;20194;-73
2024/01/09 10:11:04;;;;;;;8.00;6.23;;;3.10;1.00;;;;;;5053579;28;20254;-74
2024/01/09 10:13:30;;;;;;;9.83;6.93;;;3.30;1.00;;;;;;5053246;28;20294;-74
2024/01/09 10:16:01;;;;;;;6.67;6.00;;;3.50;1.00;;;;;;5053152;28;20167;-74
2024/01/09 10:18:33;;;;;;;7.60;6.80;;;3.60;1.00;;;;;;5052994;28;20547;-74
2024/01/09 10:20:59;;;;;;;9.63;6.60;;;3.60;1.00;;;;;;5053305;28;20255;-73
2024/01/09 10:23:26;;;;;;;6.93;6.33;;;3.60;1.00;;;;;;5036022;28;20178;-73
2024/01/09 10:25:53;;;;;;;6.87;6.10;;;3.60;1.00;;;;;;5053061;28;20262;-73
2024/01/09 10:28:18;;;;;;;7.63;6.37;;;3.80;1.00;;;;;;5052844;28;20286;-73
2024/01/09 10:30:45;;;;;;;8.53;6.53;;;3.60;1.00;;;;;;5052688;28;20736;-73
2024/01/09 10:33:12;;;;;;;10.83;7.10;;;3.70;1.00;;;;;;5052868;28;20174;-72
2024/01/09 10:35:38;;;;;;;8.67;6.37;;;3.70;1.00;;;;;;5052787;28;20650;-73
2024/01/09 10:38:04;;;;;;;7.70;6.20;;;3.60;1.00;;;;;;5052641;28;20197;-73
2024/01/09 10:40:29;;;;;;;9.30;6.47;;;3.70;1.00;;;;;;5052975;28;20177;-73
2024/01/09 10:42:55;;;;;;;8.00;6.10;;;3.70;1.00;;;;;;5052954;28;20449;-73
2024/01/09 10:45:26;;;;;;;8.07;6.23;;;3.50;1.00;;;;;;5052776;28;20190;-73
2024/01/09 10:47:53;;;;;;;9.07;7.03;;;3.50;1.00;;;;;;5052532;28;20214;-73
2024/01/09 10:50:20;;;;;;;9.63;7.10;;;3.30;1.00;;;;;;5052479;28;20166;-74
2024/01/09 10:52:50;;;;;;;8.40;6.40;;;3.10;1.00;;;;;;5052668;28;20257;-73
2024/01/09 10:55:20;;;;;;;9.73;7.00;;;3.10;1.00;;;;;;5052635;28;20700;-73
2024/01/09 10:57:47;;;;;;;8.57;7.10;;;3.00;1.00;;;;;;5052511;28;20190;-73
2024/01/09 11:00:13;;;;;;;14.23;6.67;;;3.00;1.00;;;;;;5052825;28;20524;-73
2024/01/09 11:02:39;;;;;;;8.40;6.43;;;3.10;1.00;;;;;;5047432;28;20186;-73
2024/01/09 11:05:06;;;;;;;11.00;7.30;;;3.10;1.00;;;;;;5052386;28;20189;-73
2024/01/09 11:07:35;;;;;;;9.00;6.73;;;3.10;1.00;;;;;;5052121;28;20210;-73
2024/01/09 11:10:02;;;;;;;10.10;7.03;;;3.20;1.00;;;;;;5052770;28;20170;-74
2024/01/09 11:12:32;;;;;;;9.07;6.60;;;3.10;1.00;;;;;;5052880;28;20171;-73
2024/01/09 11:15:38;;;;;;;7.33;6.60;;;2.90;1.00;;;;;;5056467;28;20178;-74
2024/01/09 11:18:08;;;;;;;10.60;6.13;;;2.90;1.00;;;;;;4951033;28;20213;-74
2024/01/09 11:20:34;;;;;;;7.40;6.53;;;2.80;1.00;;;;;;5020667;28;20175;-73
2024/01/09 11:23:00;;;;;;;13.83;6.63;;;2.90;1.00;;;;;;5031903;28;20834;-74
2024/01/09 11:25:29;;;;;;;6.63;5.93;;;3.10;1.00;;;;;;5032082;28;20246;-73
2024/01/09 11:27:55;;;;;;;12.73;6.80;;;3.00;1.00;;;;;;5031778;28;20222;-74
2024/01/09 11:30:28;;;;;;;6.80;6.10;;;2.90;1.00;;;;;;5036861;28;20252;-73
2024/01/09 11:32:56;;;;;;;7.57;6.33;;;3.20;1.00;;;;;;5051923;28;20247;-73
2024/01/09 11:35:21;;;;;;;8.73;7.13;;;3.40;1.00;;;;;;5051735;28;20162;-73
2024/01/09 11:37:49;;;;;;;8.30;7.20;;;3.30;1.00;;;;;;5051623;28;20281;-73
2024/01/09 11:40:16;;;;;;;13.93;7.60;;;3.30;1.00;;;;;;5051730;28;20175;-73
2024/01/09 11:42:49;;;;;;;7.90;6.80;;;3.30;1.00;;;;;;5031854;28;20174;-73
2024/01/09 11:45:25;;;;;;;10.87;7.40;;;3.10;1.00;;;;;;5032484;28;20540;-73
2024/01/09 11:47:53;;;;;;;8.23;7.03;;;3.00;1.00;;;;;;5048335;28;20285;-72
2024/01/09 11:50:19;;;;;;;9.30;7.10;;;2.90;1.00;;;;;;5051735;28;20167;-73
2024/01/09 11:52:48;;;;;;;8.90;6.47;;;2.90;1.00;;;;;;5051604;28;20664;-73
2024/01/09 11:55:14;;;;;;;6.90;5.83;;;2.90;1.00;;;;;;5051443;28;20245;-73
2024/01/09 11:57:41;;;;;;;9.83;6.37;;;3.10;1.00;;;;;;5051446;28;20191;-73
2024/01/09 12:00:09;;;;;;;10.50;6.73;;;3.00;1.00;;;;;;5051179;28;20228;-73
2024/01/09 12:02:38;;;;;;;8.53;6.83;;;3.00;1.00;;;;;;5051418;28;20630;-73
2024/01/09 12:05:04;;;;;;;9.07;6.17;;;2.90;1.00;;;;;;5051285;28;20192;-74
2024/01/09 12:07:32;;;;;;;7.20;6.10;;;2.80;1.00;;;;;;5050829;28;20211;-73
2024/01/09 12:09:58;;;;;;;7.07;6.13;;;2.90;1.00;;;;;;5051449;28;20597;-73
2024/01/09 12:12:25;;;;;;;8.13;5.80;;;3.00;1.00;;;;;;5051333;28;20182;-74
2024/01/09 12:14:55;;;;;;;8.33;6.23;;;2.80;1.00;;;;;;5049926;28;20203;-73
2024/01/09 12:17:33;;;;;;;7.37;6.53;;;2.90;1.00;;;;;;5049758;28;20272;-73
2024/01/09 12:20:00;;;;;;;7.43;6.60;;;2.90;1.00;;;;;;5051343;28;20170;-74
2024/01/09 12:22:25;;;;;;;7.50;6.43;;;3.00;1.00;;;;;;5051475;28;20181;-74
2024/01/09 12:24:52;;;;;;;11.73;6.90;;;3.00;1.00;;;;;;5050361;28;20274;-73
2024/01/09 12:27:19;;;;;;;8.83;6.27;;;2.90;1.00;;;;;;5050584;28;20202;-73
2024/01/09 12:29:45;;;;;;;7.40;6.50;;;2.90;1.00;;;;;;5051158;28;20269;-74
2024/01/09 12:32:12;;;;;;;6.70;5.67;;;2.90;1.00;;;;;;5051281;28;20195;-74
2024/01/09 12:34:42;;;;;;;8.50;6.00;;;2.80;1.00;;;;;;5043235;28;20522;-74
2024/01/09 12:37:08;;;;;;;8.67;6.17;;;2.70;1.00;;;;;;5053268;28;20195;-74
2024/01/09 12:39:38;;;;;;;7.30;6.43;;;2.80;1.00;;;;;;5050978;28;20167;-73
2024/01/09 12:42:13;;;;;;;8.30;6.30;;;2.80;1.00;;;;;;5050591;28;20236;-73
2024/01/09 12:44:42;;;;;;;7.53;5.90;;;2.70;1.00;;;;;;5050908;28;20171;-73
2024/01/09 12:47:16;;;;;;;7.77;6.67;;;2.70;1.00;;;;;;5050388;28;20233;-74
2024/01/09 12:49:43;;;;;;;6.13;5.53;;;2.60;1.00;;;;;;5050970;28;20515;-73